Welcome to Des Moines Iowa Weather. I am an independent private personal weather station on the Northwest Side of Des Moines, Iowa. Just East of Windsor Heights and just West of Glendale . This site is also mobile friendly.

There are no active watches, warnings or advisories


Visit our other weather sites:

Historical Data

Weather Station Setup



Weather Underground History page Text

Daily Summary for February 11, 2018 Units:  Both    English   Metric
« Previous Day
Next Day »
Daily Weekly Monthly Yearly Custom
  High: Low: Average:
Temperature: 23.0 °F /  -5 °C 7.6 °F /  -13.6 °C 13.4 °F /  -10.3 °C
Dew Point: 10.0 °F /  -12.2 °C 3.0 °F /  -16.1 °C 6.7 °F /  -14.1 °C
Humidity: 87 % 56 % 76 %
Wind Speed: 7.0 mph /  11.3 km/h - 0.9 mph /  1.4 km/h
Wind Gust: 10.0 mph /  16.1 km/h - -
Wind:- - WNW
Pressure: 30.53 in /  1033.7 hPa 30.14 in /  1020.5 hPa -
Precipitation: 0.00 in /  0 mm    
Historical Graphs
 
 
Tabular Data for February 11, 2018
Time Temperature Dew Point Pressure Wind Wind Speed Wind Gust Humidity Rainfall Rate (Hourly)
00:11 8.4 °F /  -13.1 °C 5.0 °F /  -15 °C 30.22 in /  1023.2 hPa Calm   8.0 mph /  12.9 km/h 85 % 0.00 in /  0 mm
00:26 8.4 °F /  -13.1 °C 5.0 °F /  -15 °C 30.23 in /  1023.6 hPa Calm   4.0 mph /  6.4 km/h 86 % 0.00 in /  0 mm
00:41 8.5 °F /  -13.1 °C 5.0 °F /  -15 °C 30.23 in /  1023.6 hPa Calm   4.0 mph /  6.4 km/h 86 % 0.00 in /  0 mm
00:57 8.5 °F /  -13.1 °C 5.0 °F /  -15 °C 30.21 in /  1022.9 hPa Calm   3.0 mph /  4.8 km/h 86 % 0.00 in /  0 mm
01:12 8.5 °F /  -13.1 °C 5.0 °F /  -15 °C 30.21 in /  1022.9 hPa Calm   3.0 mph /  4.8 km/h 86 % 0.00 in /  0 mm
01:27 8.6 °F /  -13 °C 5.0 °F /  -15 °C 30.20 in /  1022.6 hPa Calm   3.0 mph /  4.8 km/h 86 % 0.00 in /  0 mm
01:42 8.5 °F /  -13.1 °C 5.0 °F /  -15 °C 30.19 in /  1022.2 hPa WNW 1.0 mph /  1.6 km/h 3.0 mph /  4.8 km/h 86 % 0.00 in /  0 mm
01:57 8.5 °F /  -13.1 °C 5.0 °F /  -15 °C 30.18 in /  1021.9 hPa Calm   1.0 mph /  1.6 km/h 86 % 0.00 in /  0 mm
02:12 8.5 °F /  -13.1 °C 5.0 °F /  -15 °C 30.18 in /  1021.9 hPa WNW 1.0 mph /  1.6 km/h 3.0 mph /  4.8 km/h 86 % 0.00 in /  0 mm
02:27 8.5 °F /  -13.1 °C 5.0 °F /  -15 °C 30.18 in /  1021.9 hPa Calm   1.0 mph /  1.6 km/h 86 % 0.00 in /  0 mm
02:42 8.5 °F /  -13.1 °C 5.0 °F /  -15 °C 30.18 in /  1021.9 hPa WNW 1.0 mph /  1.6 km/h 2.0 mph /  3.2 km/h 87 % 0.00 in /  0 mm
02:57 8.5 °F /  -13.1 °C 5.0 °F /  -15 °C 30.18 in /  1021.9 hPa Calm   4.0 mph /  6.4 km/h 87 % 0.00 in /  0 mm
03:15 8.4 °F /  -13.1 °C 5.0 °F /  -15 °C 30.18 in /  1021.9 hPa Calm   2.0 mph /  3.2 km/h 86 % 0.00 in /  0 mm
03:27 8.4 °F /  -13.1 °C 5.0 °F /  -15 °C 30.18 in /  1021.9 hPa Calm   2.0 mph /  3.2 km/h 86 % 0.00 in /  0 mm
03:42 8.3 °F /  -13.2 °C 5.0 °F /  -15 °C 30.17 in /  1021.6 hPa Calm   3.0 mph /  4.8 km/h 86 % 0.00 in /  0 mm
03:57 8.3 °F /  -13.2 °C 5.0 °F /  -15 °C 30.17 in /  1021.6 hPa Calm   2.0 mph /  3.2 km/h 86 % 0.00 in /  0 mm
04:12 8.4 °F /  -13.1 °C 5.0 °F /  -15 °C 30.16 in /  1021.2 hPa Calm   1.0 mph /  1.6 km/h 86 % 0.00 in /  0 mm
04:28 8.4 °F /  -13.1 °C 5.0 °F /  -15 °C 30.16 in /  1021.2 hPa Calm   2.0 mph /  3.2 km/h 87 % 0.00 in /  0 mm
04:42 8.5 °F /  -13.1 °C 5.0 °F /  -15 °C 30.16 in /  1021.2 hPa Calm   2.0 mph /  3.2 km/h 87 % 0.00 in /  0 mm
04:57 8.6 °F /  -13 °C 6.0 °F /  -14.4 °C 30.15 in /  1020.9 hPa Calm   2.0 mph /  3.2 km/h 87 % 0.00 in /  0 mm
05:12 8.7 °F /  -12.9 °C 6.0 °F /  -14.4 °C 30.14 in /  1020.5 hPa NW 1.0 mph /  1.6 km/h 3.0 mph /  4.8 km/h 87 % 0.00 in /  0 mm
05:27 8.7 °F /  -12.9 °C 6.0 °F /  -14.4 °C 30.14 in /  1020.5 hPa Calm   1.0 mph /  1.6 km/h 87 % 0.00 in /  0 mm
05:42 8.8 °F /  -12.9 °C 6.0 °F /  -14.4 °C 30.14 in /  1020.5 hPa Calm   2.0 mph /  3.2 km/h 87 % 0.00 in /  0 mm
05:57 8.9 °F /  -12.8 °C 6.0 °F /  -14.4 °C 30.14 in /  1020.5 hPa NW 1.0 mph /  1.6 km/h 1.0 mph /  1.6 km/h 87 % 0.00 in /  0 mm
06:12 8.9 °F /  -12.8 °C 6.0 °F /  -14.4 °C 30.15 in /  1020.9 hPa Calm   2.0 mph /  3.2 km/h 87 % 0.00 in /  0 mm
06:27 8.9 °F /  -12.8 °C 6.0 °F /  -14.4 °C 30.15 in /  1020.9 hPa West 1.0 mph /  1.6 km/h 3.0 mph /  4.8 km/h 86 % 0.00 in /  0 mm
06:42 8.9 °F /  -12.8 °C 6.0 °F /  -14.4 °C 30.17 in /  1021.6 hPa West 1.0 mph /  1.6 km/h 2.0 mph /  3.2 km/h 87 % 0.00 in /  0 mm
06:57 8.9 °F /  -12.8 °C 6.0 °F /  -14.4 °C 30.17 in /  1021.6 hPa Calm   2.0 mph /  3.2 km/h 87 % 0.00 in /  0 mm
07:12 8.8 °F /  -12.9 °C 6.0 °F /  -14.4 °C 30.17 in /  1021.6 hPa Calm   2.0 mph /  3.2 km/h 86 % 0.00 in /  0 mm
07:27 8.5 °F /  -13.1 °C 5.0 °F /  -15 °C 30.17 in /  1021.6 hPa Calm   2.0 mph /  3.2 km/h 86 % 0.00 in /  0 mm
07:42 8.2 °F /  -13.2 °C 5.0 °F /  -15 °C 30.18 in /  1021.9 hPa Calm   3.0 mph /  4.8 km/h 86 % 0.00 in /  0 mm
07:57 8.1 °F /  -13.3 °C 5.0 °F /  -15 °C 30.18 in /  1021.9 hPa Calm   2.0 mph /  3.2 km/h 86 % 0.00 in /  0 mm
08:12 8.1 °F /  -13.3 °C 5.0 °F /  -15 °C 30.18 in /  1021.9 hPa WNW 2.0 mph /  3.2 km/h 3.0 mph /  4.8 km/h 86 % 0.00 in /  0 mm
08:27 8.1 °F /  -13.3 °C 5.0 °F /  -15 °C 30.18 in /  1021.9 hPa WNW 1.0 mph /  1.6 km/h 2.0 mph /  3.2 km/h 86 % 0.00 in /  0 mm
08:42 8.5 °F /  -13.1 °C 5.0 °F /  -15 °C 30.18 in /  1021.9 hPa Calm   2.0 mph /  3.2 km/h 86 % 0.00 in /  0 mm
08:57 9.8 °F /  -12.3 °C 7.0 °F /  -13.9 °C 30.19 in /  1022.2 hPa West 1.0 mph /  1.6 km/h 6.0 mph /  9.7 km/h 86 % 0.00 in /  0 mm
09:12 11.0 °F /  -11.7 °C 7.0 °F /  -13.9 °C 30.18 in /  1021.9 hPa NW 1.0 mph /  1.6 km/h 3.0 mph /  4.8 km/h 84 % 0.00 in /  0 mm
09:27 12.3 °F /  -10.9 °C 8.0 °F /  -13.3 °C 30.18 in /  1021.9 hPa WNW 2.0 mph /  3.2 km/h 3.0 mph /  4.8 km/h 82 % 0.00 in /  0 mm
09:42 13.4 °F /  -10.3 °C 8.0 °F /  -13.3 °C 30.18 in /  1021.9 hPa Calm   5.0 mph /  8 km/h 79 % 0.00 in /  0 mm
09:57 14.1 °F /  -9.9 °C 8.0 °F /  -13.3 °C 30.19 in /  1022.2 hPa WNW 1.0 mph /  1.6 km/h 5.0 mph /  8 km/h 75 % 0.00 in /  0 mm
10:12 14.4 °F /  -9.8 °C 6.0 °F /  -14.4 °C 30.19 in /  1022.2 hPa WNW 1.0 mph /  1.6 km/h 5.0 mph /  8 km/h 68 % 0.00 in /  0 mm
10:28 15.3 °F /  -9.3 °C 6.0 °F /  -14.4 °C 30.19 in /  1022.2 hPa WNW 1.0 mph /  1.6 km/h 5.0 mph /  8 km/h 66 % 0.00 in /  0 mm
10:43 15.9 °F /  -8.9 °C 6.0 °F /  -14.4 °C 30.20 in /  1022.6 hPa West 2.0 mph /  3.2 km/h 6.0 mph /  9.7 km/h 64 % 0.00 in /  0 mm
10:58 16.7 °F /  -8.5 °C 6.0 °F /  -14.4 °C 30.20 in /  1022.6 hPa West 2.0 mph /  3.2 km/h 8.0 mph /  12.9 km/h 63 % 0.00 in /  0 mm
11:13 17.4 °F /  -8.1 °C 7.0 °F /  -13.9 °C 30.20 in /  1022.6 hPa NW 2.0 mph /  3.2 km/h 6.0 mph /  9.7 km/h 63 % 0.00 in /  0 mm
11:28 18.4 °F /  -7.6 °C 7.0 °F /  -13.9 °C 30.19 in /  1022.2 hPa NW 2.0 mph /  3.2 km/h 5.0 mph /  8 km/h 62 % 0.00 in /  0 mm
11:43 18.8 °F /  -7.3 °C 7.0 °F /  -13.9 °C 30.19 in /  1022.2 hPa WSW 1.0 mph /  1.6 km/h 3.0 mph /  4.8 km/h 61 % 0.00 in /  0 mm
11:58 19.1 °F /  -7.2 °C 7.0 °F /  -13.9 °C 30.19 in /  1022.2 hPa WSW 3.0 mph /  4.8 km/h 4.0 mph /  6.4 km/h 60 % 0.00 in /  0 mm
12:13 20.6 °F /  -6.3 °C 8.0 °F /  -13.3 °C 30.19 in /  1022.2 hPa WSW 4.0 mph /  6.4 km/h 8.0 mph /  12.9 km/h 59 % 0.00 in /  0 mm
12:29 21.5 °F /  -5.8 °C 8.0 °F /  -13.3 °C 30.19 in /  1022.2 hPa West 3.0 mph /  4.8 km/h 8.0 mph /  12.9 km/h 57 % 0.00 in /  0 mm
12:43 21.9 °F /  -5.6 °C 9.0 °F /  -12.8 °C 30.19 in /  1022.2 hPa WSW 1.0 mph /  1.6 km/h 6.0 mph /  9.7 km/h 58 % 0.00 in /  0 mm
12:58 22.5 °F /  -5.3 °C 9.0 °F /  -12.8 °C 30.19 in /  1022.2 hPa SSW 2.0 mph /  3.2 km/h 5.0 mph /  8 km/h 56 % 0.00 in /  0 mm
13:14 22.8 °F /  -5.1 °C 10.0 °F /  -12.2 °C 30.18 in /  1021.9 hPa West 3.0 mph /  4.8 km/h 5.0 mph /  8 km/h 57 % 0.00 in /  0 mm
13:29 22.5 °F /  -5.3 °C 10.0 °F /  -12.2 °C 30.19 in /  1022.2 hPa West 2.0 mph /  3.2 km/h 10.0 mph /  16.1 km/h 58 % 0.00 in /  0 mm
13:44 22.9 °F /  -5.1 °C 10.0 °F /  -12.2 °C 30.19 in /  1022.2 hPa West 1.0 mph /  1.6 km/h 6.0 mph /  9.7 km/h 59 % 0.00 in /  0 mm
13:59 23.0 °F /  -5 °C 10.0 °F /  -12.2 °C 30.19 in /  1022.2 hPa Calm   5.0 mph /  8 km/h 58 % 0.00 in /  0 mm
14:14 23.0 °F /  -5 °C 10.0 °F /  -12.2 °C 30.20 in /  1022.6 hPa NW 2.0 mph /  3.2 km/h 10.0 mph /  16.1 km/h 58 % 0.00 in /  0 mm
14:29 22.4 °F /  -5.3 °C 10.0 °F /  -12.2 °C 30.20 in /  1022.6 hPa WNW 2.0 mph /  3.2 km/h 9.0 mph /  14.5 km/h 59 % 0.00 in /  0 mm
14:44 22.5 °F /  -5.3 °C 10.0 °F /  -12.2 °C 30.21 in /  1022.9 hPa WNW 3.0 mph /  4.8 km/h 8.0 mph /  12.9 km/h 60 % 0.00 in /  0 mm
15:08 22.3 °F /  -5.4 °C 10.0 °F /  -12.2 °C 30.21 in /  1022.9 hPa West 2.0 mph /  3.2 km/h 7.0 mph /  11.3 km/h 59 % 0.00 in /  0 mm
15:14 22.3 °F /  -5.4 °C 10.0 °F /  -12.2 °C 30.21 in /  1022.9 hPa NW 2.0 mph /  3.2 km/h 10.0 mph /  16.1 km/h 59 % 0.00 in /  0 mm
15:29 22.7 °F /  -5.2 °C 10.0 °F /  -12.2 °C 30.22 in /  1023.2 hPa NW 7.0 mph /  11.3 km/h 8.0 mph /  12.9 km/h 58 % 0.00 in /  0 mm
15:44 22.2 °F /  -5.4 °C 10.0 °F /  -12.2 °C 30.22 in /  1023.2 hPa NW 3.0 mph /  4.8 km/h 9.0 mph /  14.5 km/h 59 % 0.00 in /  0 mm
15:59 21.6 °F /  -5.8 °C 10.0 °F /  -12.2 °C 30.23 in /  1023.6 hPa West 1.0 mph /  1.6 km/h 10.0 mph /  16.1 km/h 60 % 0.00 in /  0 mm
16:14 21.1 °F /  -6.1 °C 10.0 °F /  -12.2 °C 30.23 in /  1023.6 hPa NNW 3.0 mph /  4.8 km/h 9.0 mph /  14.5 km/h 62 % 0.00 in /  0 mm
16:29 20.6 °F /  -6.3 °C 10.0 °F /  -12.2 °C 30.24 in /  1023.9 hPa NW 2.0 mph /  3.2 km/h 4.0 mph /  6.4 km/h 64 % 0.00 in /  0 mm
16:44 20.4 °F /  -6.4 °C 10.0 °F /  -12.2 °C 30.25 in /  1024.3 hPa NW 2.0 mph /  3.2 km/h 6.0 mph /  9.7 km/h 65 % 0.00 in /  0 mm
16:59 20.0 °F /  -6.7 °C 10.0 °F /  -12.2 °C 30.25 in /  1024.3 hPa Calm   4.0 mph /  6.4 km/h 65 % 0.00 in /  0 mm
17:14 19.5 °F /  -6.9 °C 9.0 °F /  -12.8 °C 30.26 in /  1024.6 hPa Calm   2.0 mph /  3.2 km/h 65 % 0.00 in /  0 mm
17:29 19.4 °F /  -7 °C 10.0 °F /  -12.2 °C 30.28 in /  1025.3 hPa Calm   2.0 mph /  3.2 km/h 68 % 0.00 in /  0 mm
17:44 18.9 °F /  -7.3 °C 10.0 °F /  -12.2 °C 30.30 in /  1026 hPa NW 1.0 mph /  1.6 km/h 2.0 mph /  3.2 km/h 69 % 0.00 in /  0 mm
17:59 18.0 °F /  -7.8 °C 10.0 °F /  -12.2 °C 30.31 in /  1026.3 hPa Calm   4.0 mph /  6.4 km/h 70 % 0.00 in /  0 mm
18:14 17.4 °F /  -8.1 °C 10.0 °F /  -12.2 °C 30.32 in /  1026.6 hPa Calm   2.0 mph /  3.2 km/h 71 % 0.00 in /  0 mm
18:29 16.6 °F /  -8.6 °C 9.0 °F /  -12.8 °C 30.33 in /  1027 hPa Calm     71 % 0.00 in /  0 mm
18:44 15.9 °F /  -8.9 °C 8.0 °F /  -13.3 °C 30.34 in /  1027.3 hPa Calm   1.0 mph /  1.6 km/h 72 % 0.00 in /  0 mm
18:59 15.1 °F /  -9.4 °C 8.0 °F /  -13.3 °C 30.35 in /  1027.7 hPa Calm     72 % 0.00 in /  0 mm
19:14 14.2 °F /  -9.9 °C 7.0 °F /  -13.9 °C 30.36 in /  1028 hPa Calm     72 % 0.00 in /  0 mm
19:29 13.5 °F /  -10.3 °C 6.0 °F /  -14.4 °C 30.37 in /  1028.3 hPa Calm     73 % 0.00 in /  0 mm
19:44 12.5 °F /  -10.8 °C 6.0 °F /  -14.4 °C 30.37 in /  1028.3 hPa Calm     75 % 0.00 in /  0 mm
19:59 12.1 °F /  -11.1 °C 6.0 °F /  -14.4 °C 30.38 in /  1028.7 hPa Calm     76 % 0.00 in /  0 mm
20:14 11.5 °F /  -11.4 °C 6.0 °F /  -14.4 °C 30.39 in /  1029 hPa Calm     77 % 0.00 in /  0 mm
20:31 10.7 °F /  -11.8 °C 5.0 °F /  -15 °C 30.40 in /  1029.3 hPa Calm     77 % 0.00 in /  0 mm
20:45 10.1 °F /  -12.2 °C 5.0 °F /  -15 °C 30.41 in /  1029.7 hPa Calm     78 % 0.00 in /  0 mm
21:00 10.1 °F /  -12.2 °C 5.0 °F /  -15 °C 30.42 in /  1030 hPa NW 2.0 mph /  3.2 km/h 6.0 mph /  9.7 km/h 81 % 0.00 in /  0 mm
21:15 10.7 °F /  -11.8 °C 6.0 °F /  -14.4 °C 30.44 in /  1030.7 hPa Calm   3.0 mph /  4.8 km/h 82 % 0.00 in /  0 mm
21:30 10.8 °F /  -11.8 °C 6.0 °F /  -14.4 °C 30.45 in /  1031 hPa NW 1.0 mph /  1.6 km/h 4.0 mph /  6.4 km/h 82 % 0.00 in /  0 mm
21:45 10.6 °F /  -11.9 °C 6.0 °F /  -14.4 °C 30.46 in /  1031.4 hPa NW 1.0 mph /  1.6 km/h 6.0 mph /  9.7 km/h 81 % 0.00 in /  0 mm
22:00 10.3 °F /  -12.1 °C 6.0 °F /  -14.4 °C 30.47 in /  1031.7 hPa NW 3.0 mph /  4.8 km/h 5.0 mph /  8 km/h 81 % 0.00 in /  0 mm
22:15 10.0 °F /  -12.2 °C 5.0 °F /  -15 °C 30.48 in /  1032.1 hPa NW 1.0 mph /  1.6 km/h 3.0 mph /  4.8 km/h 81 % 0.00 in /  0 mm
22:30 9.7 °F /  -12.4 °C 5.0 °F /  -15 °C 30.48 in /  1032.1 hPa Calm   2.0 mph /  3.2 km/h 80 % 0.00 in /  0 mm
22:45 9.2 °F /  -12.7 °C 4.0 °F /  -15.6 °C 30.49 in /  1032.4 hPa Calm   1.0 mph /  1.6 km/h 80 % 0.00 in /  0 mm
23:00 8.8 °F /  -12.9 °C 4.0 °F /  -15.6 °C 30.50 in /  1032.7 hPa Calm   3.0 mph /  4.8 km/h 80 % 0.00 in /  0 mm
23:15 8.5 °F /  -13.1 °C 4.0 °F /  -15.6 °C 30.50 in /  1032.7 hPa NW 1.0 mph /  1.6 km/h 1.0 mph /  1.6 km/h 80 % 0.00 in /  0 mm
23:30 8.0 °F /  -13.3 °C 3.0 °F /  -16.1 °C 30.52 in /  1033.4 hPa Calm   1.0 mph /  1.6 km/h 80 % 0.00 in /  0 mm
23:45 7.6 °F /  -13.6 °C 3.0 °F /  -16.1 °C 30.53 in /  1033.7 hPa Calm   2.0 mph /  3.2 km/h 80 % 0.00 in /  0 mm
Des Moines Weather and Climate
Compliments of Weather Underground - 3 mb

Script developed by  Jim McMurry - jmcmurry@mwt.net Adapted for the template by  Wim van der Kuil - Leuven-Template.eu

You find our weather info also at:

Weather Underground

Equipment we use:

Weather-station
Davis VP2 Plus

Weather-program
Davis Weatherlink.Com

Weather-server
iMac (Retina 4K, 21.5-inch, Late 2015)

Provider
Hostmonster.com

Davis VP2 Plus

Davis Weatherlink.Com

iMac (Retina 4K, 21.5-inch, Late 2015)

Hostmonster.com